createdAt,value
2022-08-26T00:02:20.561Z,2.80
2022-08-26T00:04:49.518Z,2.50
2022-08-26T00:07:18.985Z,3.00
2022-08-26T00:09:47.605Z,2.88
2022-08-26T00:12:17.697Z,2.50
2022-08-26T00:14:46.427Z,2.50
2022-08-26T00:17:15.070Z,2.83
2022-08-26T00:19:43.856Z,3.05
2022-08-26T00:22:12.861Z,2.72
2022-08-26T00:24:48.898Z,2.83
2022-08-26T00:27:19.084Z,2.60
2022-08-26T00:29:49.487Z,2.70
2022-08-26T00:32:19.327Z,2.60
2022-08-26T00:37:16.714Z,2.65
2022-08-26T00:39:45.688Z,3.10
2022-08-26T00:44:46.097Z,2.50
2022-08-26T00:47:21.711Z,2.50
2022-08-26T00:49:51.733Z,3.28
2022-08-26T00:52:22.994Z,2.53
2022-08-26T00:54:58.982Z,3.13
2022-08-26T00:57:28.801Z,2.60
2022-08-26T01:00:01.552Z,2.88
2022-08-26T01:02:32.283Z,2.80
2022-08-26T01:05:04.013Z,2.67
2022-08-26T01:07:34.844Z,2.95
2022-08-26T01:10:07.662Z,3.03
2022-08-26T01:12:42.070Z,3.00
2022-08-26T01:15:17.715Z,3.15
2022-08-26T01:17:46.412Z,3.60
2022-08-26T01:20:31.689Z,3.63
2022-08-26T01:23:04.196Z,3.47
2022-08-26T01:25:35.156Z,3.53
2022-08-26T01:28:23.052Z,2.90
2022-08-26T01:30:54.263Z,2.90
2022-08-26T01:33:29.109Z,3.20
2022-08-26T01:35:58.020Z,2.88
2022-08-26T01:38:28.985Z,2.65
2022-08-26T01:41:01.291Z,2.70
2022-08-26T01:43:32.703Z,2.80
2022-08-26T01:46:03.122Z,2.83
2022-08-26T01:48:35.681Z,3.05
2022-08-26T01:51:06.603Z,2.58
2022-08-26T01:53:37.775Z,3.40
2022-08-26T01:56:11.925Z,3.15
2022-08-26T01:58:45.994Z,2.30
2022-08-26T02:01:14.828Z,2.70
2022-08-26T02:03:52.972Z,2.50
2022-08-26T02:06:22.242Z,2.72
2022-08-26T02:08:56.750Z,2.90
2022-08-26T02:11:25.261Z,3.03
2022-08-26T02:13:58.283Z,2.83
2022-08-26T02:16:31.423Z,3.00
2022-08-26T02:19:02.461Z,3.08
2022-08-26T02:21:33.427Z,2.75
2022-08-26T02:24:12.765Z,2.45
2022-08-26T02:26:42.054Z,2.65
2022-08-26T02:29:17.736Z,2.85
2022-08-26T02:31:48.163Z,3.25
2022-08-26T02:34:21.983Z,3.00
2022-08-26T02:36:51.128Z,2.97
2022-08-26T02:41:51.237Z,2.70
2022-08-26T02:44:20.036Z,4.00
2022-08-26T02:46:48.795Z,2.95
2022-08-26T02:49:18.018Z,2.80
2022-08-26T02:51:46.879Z,3.05
2022-08-26T02:54:15.684Z,2.80
2022-08-26T02:59:14.411Z,3.65
2022-08-26T03:01:45.261Z,2.72
2022-08-26T03:04:14.569Z,3.08
2022-08-26T03:06:43.826Z,2.88
2022-08-26T03:09:21.291Z,2.80
2022-08-26T03:11:55.597Z,2.85
2022-08-26T03:14:24.969Z,3.80
2022-08-26T03:16:55.058Z,3.42
2022-08-26T03:19:25.642Z,3.00
2022-08-26T03:21:58.046Z,3.30
2022-08-26T03:24:27.781Z,3.03
2022-08-26T03:26:57.924Z,3.40
2022-08-26T03:29:44.038Z,3.10
2022-08-26T03:32:18.223Z,3.50
2022-08-26T03:34:46.919Z,3.20
2022-08-26T03:37:15.976Z,2.97
2022-08-26T03:39:45.975Z,3.42
2022-08-26T03:42:16.095Z,3.92
2022-08-26T03:44:44.632Z,3.35
2022-08-26T03:47:13.178Z,3.20
2022-08-26T03:49:42.005Z,3.88
2022-08-26T03:54:39.936Z,4.03
2022-08-26T03:57:09.288Z,3.20
2022-08-26T03:59:41.319Z,3.40
2022-08-26T04:02:11.457Z,3.30
2022-08-26T04:04:40.756Z,4.15
2022-08-26T04:09:37.866Z,3.30
2022-08-26T04:12:09.917Z,3.15
2022-08-26T04:14:40.265Z,3.10
2022-08-26T04:17:08.852Z,3.67
2022-08-26T04:19:37.420Z,4.05
2022-08-26T04:22:06.383Z,4.20
2022-08-26T04:24:35.054Z,3.60
2022-08-26T04:27:03.854Z,4.40
2022-08-26T04:29:32.988Z,4.75
2022-08-26T04:32:04.652Z,3.92
2022-08-26T04:34:34.446Z,4.22
2022-08-26T04:37:03.244Z,4.25
2022-08-26T04:39:31.975Z,3.90
2022-08-26T04:42:01.741Z,3.60
2022-08-26T04:44:31.800Z,4.00
2022-08-26T04:47:00.400Z,3.63
2022-08-26T04:49:35.066Z,3.97
2022-08-26T04:52:05.274Z,3.60
2022-08-26T04:54:34.007Z,4.45
2022-08-26T04:57:02.740Z,3.60
2022-08-26T04:59:32.093Z,4.60
2022-08-26T05:02:03.946Z,3.85
2022-08-26T05:04:36.239Z,3.78
2022-08-26T05:07:06.437Z,4.25
2022-08-26T05:09:34.979Z,3.67
2022-08-26T05:12:03.594Z,3.40
2022-08-26T05:14:34.082Z,3.28
2022-08-26T05:17:03.300Z,3.70
2022-08-26T05:19:33.447Z,3.80
2022-08-26T05:22:03.429Z,3.78
2022-08-26T05:24:32.761Z,3.85
2022-08-26T05:27:03.245Z,3.95
2022-08-26T05:29:40.505Z,3.97
2022-08-26T05:34:40.029Z,4.20
2022-08-26T05:37:13.800Z,4.10
2022-08-26T05:39:51.290Z,4.00
2022-08-26T05:42:20.248Z,3.80
2022-08-26T05:44:56.221Z,4.03
2022-08-26T05:47:25.123Z,4.65
2022-08-26T05:49:54.597Z,5.20
2022-08-26T05:52:26.041Z,4.70
2022-08-26T05:54:55.243Z,3.95
2022-08-26T05:59:52.944Z,4.25
2022-08-26T06:04:49.849Z,4.20
2022-08-26T06:07:40.555Z,6.68
2022-08-26T06:13:09.253Z,4.07
2022-08-26T06:15:43.214Z,4.47
2022-08-26T06:18:14.642Z,4.28
2022-08-26T06:20:53.715Z,4.65
2022-08-26T06:23:46.283Z,3.80
2022-08-26T06:26:17.356Z,4.15
2022-08-26T06:28:46.509Z,4.32
2022-08-26T06:31:16.706Z,3.75
2022-08-26T06:33:46.283Z,5.25
2022-08-26T06:36:19.595Z,4.47
2022-08-26T06:38:49.139Z,4.47
2022-08-26T06:41:21.386Z,4.60
2022-08-26T06:43:50.613Z,4.63
2022-08-26T06:46:22.120Z,4.30
2022-08-26T06:48:51.157Z,4.07
2022-08-26T06:53:55.330Z,4.68
2022-08-26T06:56:27.801Z,4.80
2022-08-26T06:58:56.734Z,4.38
2022-08-26T07:01:27.361Z,5.43
2022-08-26T07:03:58.794Z,4.97
2022-08-26T07:06:28.692Z,5.20
2022-08-26T07:09:04.123Z,5.28
2022-08-26T07:11:35.985Z,4.97
2022-08-26T07:14:06.252Z,5.80
2022-08-26T07:16:35.845Z,5.60
2022-08-26T07:19:11.176Z,5.50
2022-08-26T07:21:42.340Z,5.30
2022-08-26T07:24:11.879Z,5.50
2022-08-26T07:26:43.191Z,5.68
2022-08-26T07:29:12.811Z,5.60
2022-08-26T07:31:42.756Z,4.78
2022-08-26T07:34:13.783Z,5.05
2022-08-26T07:36:42.661Z,4.50
2022-08-26T07:39:11.210Z,5.10
2022-08-26T07:41:41.259Z,4.90
2022-08-26T07:44:11.400Z,5.63
2022-08-26T07:46:40.013Z,4.75
2022-08-26T07:51:38.421Z,4.80
2022-08-26T07:54:07.535Z,4.93
2022-08-26T07:56:36.325Z,7.80
2022-08-26T08:01:45.052Z,5.22
2022-08-26T08:04:14.682Z,6.10
2022-08-26T08:06:43.969Z,5.05
2022-08-26T08:09:13.691Z,5.75
2022-08-26T08:11:42.720Z,6.20
2022-08-26T08:14:13.782Z,5.50
2022-08-26T08:16:42.580Z,5.57
2022-08-26T08:19:16.180Z,5.32
2022-08-26T08:24:13.622Z,5.88
2022-08-26T08:26:42.525Z,8.00
2022-08-26T08:31:58.465Z,6.88
2022-08-26T08:34:29.381Z,6.60
2022-08-26T08:36:58.431Z,6.40
2022-08-26T08:39:27.591Z,8.00
2022-08-26T08:42:16.239Z,6.97
2022-08-26T08:44:51.941Z,6.47
2022-08-26T08:47:30.918Z,6.78
2022-08-26T08:50:04.459Z,6.22
2022-08-26T08:52:36.905Z,6.30
2022-08-26T08:55:11.055Z,6.57
2022-08-26T08:57:53.654Z,5.97
2022-08-26T09:00:30.403Z,7.82
2022-08-26T09:03:05.103Z,7.75
2022-08-26T09:05:40.494Z,6.05
2022-08-26T09:08:13.007Z,5.75
2022-08-26T09:10:45.105Z,7.10
2022-08-26T09:13:25.280Z,7.22
2022-08-26T09:16:04.437Z,6.50
2022-08-26T09:18:52.416Z,6.82
2022-08-26T09:21:23.811Z,6.25
2022-08-26T09:23:55.833Z,6.72
2022-08-26T09:26:30.635Z,5.50
2022-08-26T09:29:02.585Z,7.70
2022-08-26T09:31:34.272Z,7.97
2022-08-26T09:34:17.341Z,7.10
2022-08-26T09:36:49.150Z,7.90
2022-08-26T09:39:30.854Z,7.80
2022-08-26T09:42:16.687Z,7.95
2022-08-26T09:44:55.999Z,7.47
2022-08-26T09:47:30.374Z,7.07
2022-08-26T09:50:12.553Z,6.70
2022-08-26T09:52:42.746Z,7.43
2022-08-26T09:55:17.311Z,6.55
2022-08-26T09:57:48.657Z,7.65
2022-08-26T10:00:30.830Z,9.05
2022-08-26T10:03:01.216Z,8.02
2022-08-26T10:05:40.138Z,8.63
2022-08-26T10:10:53.444Z,6.97
2022-08-26T10:13:28.011Z,8.52
2022-08-26T10:16:05.582Z,7.65
2022-08-26T10:18:38.626Z,8.18
2022-08-26T10:21:37.052Z,8.40
2022-08-26T10:24:08.083Z,7.93
2022-08-26T10:26:46.172Z,6.68
2022-08-26T10:29:20.076Z,8.82
2022-08-26T10:31:58.777Z,7.20
2022-08-26T10:34:32.852Z,6.47
2022-08-26T10:37:13.857Z,7.55
2022-08-26T10:39:51.973Z,7.82
2022-08-26T10:42:33.273Z,7.10
2022-08-26T10:45:11.886Z,7.68
2022-08-26T10:50:14.687Z,6.63
2022-08-26T10:52:59.035Z,6.40
2022-08-26T10:55:37.286Z,6.93
2022-08-26T10:58:29.322Z,8.00
2022-08-26T11:01:23.832Z,6.47
2022-08-26T11:04:00.489Z,6.63
2022-08-26T11:06:31.468Z,7.05
2022-08-26T11:09:03.830Z,7.55
2022-08-26T11:11:50.180Z,7.00
2022-08-26T11:14:41.994Z,7.03
2022-08-26T11:17:56.638Z,6.90
2022-08-26T11:20:35.962Z,6.82
2022-08-26T11:23:40.487Z,6.15
2022-08-26T11:26:35.490Z,6.45
2022-08-26T11:29:12.958Z,6.88
2022-08-26T11:31:57.042Z,6.38
2022-08-26T11:34:56.410Z,7.32
2022-08-26T11:37:51.250Z,7.18
2022-08-26T11:40:23.056Z,6.57
2022-08-26T11:42:59.766Z,7.68
2022-08-26T11:45:35.379Z,5.93
2022-08-26T11:48:16.886Z,7.50
2022-08-26T11:50:55.297Z,5.57
2022-08-26T11:53:26.107Z,8.57
2022-08-26T11:55:58.311Z,6.43
2022-08-26T11:58:30.268Z,6.13
2022-08-26T12:01:03.514Z,5.78
2022-08-26T12:03:38.012Z,6.53
2022-08-26T12:06:14.221Z,5.60
2022-08-26T12:08:45.506Z,8.32
2022-08-26T12:11:23.176Z,5.72
2022-08-26T12:13:58.374Z,5.68
2022-08-26T12:16:29.607Z,6.70
2022-08-26T12:18:59.142Z,6.30
2022-08-26T12:21:34.613Z,5.60
2022-08-26T12:24:04.949Z,6.28
2022-08-26T12:26:36.224Z,7.18
2022-08-26T12:29:20.381Z,7.13
2022-08-26T12:32:08.895Z,7.60
2022-08-26T12:34:37.675Z,6.63
2022-08-26T12:37:07.170Z,5.25
2022-08-26T12:39:38.442Z,7.55
2022-08-26T12:42:22.974Z,6.47
2022-08-26T12:45:00.673Z,6.03
2022-08-26T12:47:42.223Z,5.38
2022-08-26T12:50:18.526Z,6.18
2022-08-26T12:52:57.645Z,6.07
2022-08-26T12:55:36.633Z,6.55
2022-08-26T12:58:24.728Z,6.20
2022-08-26T13:00:56.833Z,6.57
2022-08-26T13:03:32.765Z,5.28
2022-08-26T13:06:16.456Z,7.15
2022-08-26T13:08:46.596Z,5.35
2022-08-26T13:11:20.650Z,5.63
2022-08-26T13:13:51.874Z,6.43
2022-08-26T13:16:24.577Z,5.05
2022-08-26T13:18:55.245Z,7.07
2022-08-26T13:21:26.371Z,6.47
2022-08-26T13:23:55.930Z,5.78
2022-08-26T13:26:24.732Z,6.35
2022-08-26T13:29:01.640Z,5.95
2022-08-26T13:31:34.740Z,6.80
2022-08-26T13:34:04.391Z,7.32
2022-08-26T13:36:32.992Z,6.18
2022-08-26T13:39:01.611Z,6.32
2022-08-26T13:41:32.016Z,5.28
2022-08-26T13:44:01.043Z,4.55
2022-08-26T13:51:31.433Z,4.82
2022-08-26T13:54:00.566Z,4.88
2022-08-26T13:56:30.932Z,4.13
2022-08-26T13:59:01.359Z,4.47
2022-08-26T14:01:31.730Z,4.82
2022-08-26T14:04:02.842Z,4.18
2022-08-26T14:06:32.124Z,4.90
2022-08-26T14:09:00.548Z,4.53
2022-08-26T14:11:30.332Z,3.88
2022-08-26T14:14:15.272Z,3.72
2022-08-26T14:16:58.862Z,4.07
2022-08-26T14:19:51.634Z,5.13
2022-08-26T14:22:23.277Z,3.75
2022-08-26T14:24:51.897Z,3.83
2022-08-26T14:27:20.475Z,3.38
2022-08-26T14:29:49.103Z,3.97
2022-08-26T14:32:23.480Z,3.90
2022-08-26T14:34:53.711Z,3.85
2022-08-26T14:37:22.821Z,3.85
2022-08-26T14:42:24.540Z,4.43
2022-08-26T14:44:56.956Z,3.60
2022-08-26T14:47:25.921Z,3.90
2022-08-26T14:49:55.778Z,3.55
2022-08-26T14:52:24.483Z,4.65
2022-08-26T14:54:54.821Z,4.28
2022-08-26T14:57:24.422Z,3.25
2022-08-26T14:59:53.212Z,4.38
2022-08-26T15:02:32.683Z,3.95
2022-08-26T15:05:04.513Z,4.82
2022-08-26T15:07:33.239Z,4.13
2022-08-26T15:10:02.043Z,6.43
2022-08-26T15:12:31.502Z,5.75
2022-08-26T15:15:00.351Z,5.25
2022-08-26T15:17:29.248Z,5.65
2022-08-26T15:19:57.755Z,5.25
2022-08-26T15:22:28.524Z,4.80
2022-08-26T15:24:59.198Z,4.68
2022-08-26T15:27:27.825Z,5.47
2022-08-26T15:29:56.367Z,5.38
2022-08-26T15:32:24.999Z,5.55
2022-08-26T15:34:53.496Z,5.25
2022-08-26T15:37:21.987Z,5.32
2022-08-26T15:39:52.225Z,4.78
2022-08-26T15:42:21.651Z,5.20
2022-08-26T15:44:50.547Z,4.32
2022-08-26T15:47:19.294Z,5.05
2022-08-26T15:50:09.288Z,6.15
2022-08-26T15:52:39.320Z,4.75
2022-08-26T15:55:10.635Z,5.22
2022-08-26T15:57:39.222Z,5.85
2022-08-26T16:00:11.868Z,5.88
2022-08-26T16:02:40.370Z,5.32
2022-08-26T16:05:09.716Z,5.55
2022-08-26T16:07:38.304Z,6.20
2022-08-26T16:10:09.312Z,6.85
2022-08-26T16:12:38.102Z,6.80
2022-08-26T16:15:08.049Z,6.30
2022-08-26T16:17:36.609Z,5.40
2022-08-26T16:20:06.182Z,6.93
2022-08-26T16:22:35.039Z,6.15
2022-08-26T16:25:03.598Z,6.25
2022-08-26T16:27:33.638Z,6.22
2022-08-26T16:30:02.276Z,6.13
2022-08-26T16:32:31.995Z,5.63
2022-08-26T16:35:00.644Z,5.47
2022-08-26T16:37:29.193Z,6.10
2022-08-26T16:39:57.814Z,5.40
2022-08-26T16:42:26.373Z,6.53
2022-08-26T16:44:56.321Z,6.70
2022-08-26T16:47:24.902Z,5.95
2022-08-26T16:49:54.234Z,6.68
2022-08-26T16:52:22.788Z,6.72
2022-08-26T16:54:53.461Z,5.85
2022-08-26T16:57:22.147Z,5.43
2022-08-26T16:59:51.178Z,5.15
2022-08-26T17:02:21.225Z,4.75
2022-08-26T17:04:49.706Z,4.88
2022-08-26T17:07:19.119Z,5.88
2022-08-26T17:09:47.823Z,4.82
2022-08-26T17:12:16.644Z,4.57
2022-08-26T17:14:45.794Z,4.72
2022-08-26T17:17:14.415Z,5.75
2022-08-26T17:19:47.166Z,4.07
2022-08-26T17:22:16.614Z,4.78
2022-08-26T17:24:45.265Z,3.95
2022-08-26T17:27:14.089Z,4.28
2022-08-26T17:29:49.947Z,5.05
2022-08-26T17:32:18.588Z,4.30
2022-08-26T17:34:48.485Z,4.28
2022-08-26T17:37:17.542Z,5.07
2022-08-26T17:42:14.411Z,4.35
2022-08-26T17:44:43.073Z,4.13
2022-08-26T17:47:11.684Z,4.35
2022-08-26T17:49:40.733Z,4.22
2022-08-26T17:52:11.730Z,4.72
2022-08-26T17:54:40.419Z,4.63
2022-08-26T17:57:10.772Z,5.22
2022-08-26T17:59:40.971Z,5.55
2022-08-26T18:02:09.645Z,4.60
2022-08-26T18:04:38.230Z,4.88
2022-08-26T18:07:07.149Z,5.07
2022-08-26T18:12:06.617Z,5.15
2022-08-26T18:14:35.467Z,4.78
2022-08-26T18:17:04.394Z,5.30
2022-08-26T18:22:01.527Z,6.40
2022-08-26T18:24:30.527Z,3.78
2022-08-26T18:29:29.277Z,4.28
2022-08-26T18:31:57.860Z,5.20
2022-08-26T18:34:31.687Z,4.93
2022-08-26T18:37:00.691Z,4.20
2022-08-26T18:39:29.254Z,4.28
2022-08-26T18:41:57.897Z,3.95
2022-08-26T18:44:27.895Z,4.25
2022-08-26T18:46:56.419Z,4.05
2022-08-26T18:49:25.032Z,4.20
2022-08-26T18:51:53.630Z,4.60
2022-08-26T18:54:22.580Z,4.55
2022-08-26T18:56:51.198Z,4.30
2022-08-26T18:59:19.952Z,4.53
2022-08-26T19:01:59.832Z,3.92
2022-08-26T19:04:28.672Z,4.40
2022-08-26T19:06:57.275Z,4.15
2022-08-26T19:09:26.499Z,3.83
2022-08-26T19:14:31.272Z,4.65
2022-08-26T19:17:01.617Z,4.35
2022-08-26T19:19:31.915Z,3.70
2022-08-26T19:22:00.706Z,3.30
2022-08-26T19:24:29.725Z,3.38
2022-08-26T19:27:00.061Z,3.70
2022-08-26T19:29:31.575Z,3.75
2022-08-26T19:32:01.997Z,3.88
2022-08-26T19:34:30.774Z,3.25
2022-08-26T19:36:59.302Z,3.50
2022-08-26T19:39:28.087Z,3.55
2022-08-26T19:41:56.898Z,4.07
2022-08-26T19:44:42.798Z,3.15
2022-08-26T19:47:13.507Z,3.50
2022-08-26T19:49:42.098Z,3.70
2022-08-26T19:52:11.983Z,3.60
2022-08-26T19:54:41.116Z,3.80
2022-08-26T19:57:09.726Z,3.47
2022-08-26T19:59:40.390Z,3.20
2022-08-26T20:02:11.058Z,3.30
2022-08-26T20:04:41.973Z,3.33
2022-08-26T20:07:14.194Z,3.42
2022-08-26T20:09:47.359Z,3.50
2022-08-26T20:12:17.507Z,3.40
2022-08-26T20:14:46.505Z,3.08
2022-08-26T20:17:17.197Z,3.00
2022-08-26T20:20:04.611Z,3.40
2022-08-26T20:22:33.680Z,3.38
2022-08-26T20:27:38.375Z,3.35
2022-08-26T20:30:09.877Z,3.45
2022-08-26T20:32:39.548Z,3.45
2022-08-26T20:35:13.859Z,3.25
2022-08-26T20:37:42.723Z,2.95
2022-08-26T20:42:40.884Z,3.00
2022-08-26T20:45:10.801Z,3.63
2022-08-26T20:47:39.412Z,2.67
2022-08-26T20:50:10.300Z,3.72
2022-08-26T20:52:38.880Z,3.22
2022-08-26T20:55:08.237Z,4.22
2022-08-26T20:57:37.475Z,3.22
2022-08-26T21:00:07.509Z,3.30
2022-08-26T21:02:37.186Z,3.97
2022-08-26T21:05:06.570Z,3.25
2022-08-26T21:07:37.519Z,3.25
2022-08-26T21:10:06.580Z,3.38
2022-08-26T21:12:35.622Z,3.10
2022-08-26T21:17:32.746Z,3.53
2022-08-26T21:20:01.345Z,3.47
2022-08-26T21:22:31.572Z,3.10
2022-08-26T21:25:01.664Z,2.95
2022-08-26T21:27:30.359Z,3.10
2022-08-26T21:29:58.942Z,4.53
2022-08-26T21:32:27.629Z,3.35
2022-08-26T21:34:57.092Z,3.42
2022-08-26T21:37:28.032Z,3.40
2022-08-26T21:39:58.068Z,2.90
2022-08-26T21:42:28.069Z,3.78
2022-08-26T21:44:56.672Z,3.03
2022-08-26T21:47:25.640Z,2.83
2022-08-26T21:49:55.167Z,4.35
2022-08-26T21:52:23.656Z,2.85
2022-08-26T21:54:52.253Z,3.22
2022-08-26T21:57:20.949Z,3.08
2022-08-26T21:59:51.415Z,3.15
2022-08-26T22:02:20.418Z,3.10
2022-08-26T22:04:49.473Z,3.20
2022-08-26T22:10:50.636Z,3.28
2022-08-26T22:13:20.543Z,2.95
2022-08-26T22:15:49.932Z,3.30
2022-08-26T22:18:21.512Z,2.80
2022-08-26T22:20:52.801Z,3.20
2022-08-26T22:23:21.951Z,3.10
2022-08-26T22:25:52.215Z,3.17
2022-08-26T22:28:21.128Z,4.22
2022-08-26T22:30:49.838Z,2.83
2022-08-26T22:33:18.817Z,4.13
2022-08-26T22:38:17.069Z,3.47
2022-08-26T22:43:16.567Z,3.50
2022-08-26T22:45:47.726Z,3.97
2022-08-26T22:48:22.406Z,3.28
2022-08-26T22:50:52.211Z,2.70
2022-08-26T22:53:20.790Z,2.97
2022-08-26T22:55:49.926Z,2.95
2022-08-26T22:58:20.614Z,2.85
2022-08-26T23:00:56.719Z,2.70
2022-08-26T23:03:28.721Z,4.00
2022-08-26T23:05:57.367Z,2.80
2022-08-26T23:08:27.523Z,3.65
2022-08-26T23:10:56.225Z,3.00
2022-08-26T23:13:26.160Z,2.90
2022-08-26T23:16:02.495Z,3.22
2022-08-26T23:18:31.327Z,2.72
2022-08-26T23:20:59.912Z,3.38
2022-08-26T23:23:28.813Z,3.10
2022-08-26T23:25:57.365Z,2.60
2022-08-26T23:28:27.520Z,2.70
2022-08-26T23:30:56.004Z,2.67
2022-08-26T23:33:44.635Z,2.72
2022-08-26T23:36:17.040Z,2.75
2022-08-26T23:38:48.569Z,2.70
2022-08-26T23:41:22.498Z,3.05
2022-08-26T23:43:52.954Z,2.70
2022-08-26T23:46:21.873Z,2.85
2022-08-26T23:48:50.393Z,3.17
2022-08-26T23:51:57.547Z,2.60
2022-08-26T23:54:26.501Z,2.97
2022-08-26T23:59:24.971Z,3.15
